createdAt,value
2022-10-07T00:01:51.394Z,4.29
2022-10-07T00:04:21.262Z,4.28
2022-10-07T00:06:51.478Z,4.29
2022-10-07T00:09:20.999Z,4.26
2022-10-07T00:11:51.100Z,4.28
2022-10-07T00:14:20.619Z,4.28
2022-10-07T00:16:50.599Z,4.24
2022-10-07T00:19:21.351Z,4.21
2022-10-07T00:21:51.576Z,4.19
2022-10-07T00:24:21.095Z,4.15
2022-10-07T00:26:50.985Z,4.11
2022-10-07T00:29:20.706Z,4.09
2022-10-07T00:31:57.057Z,4.06
2022-10-07T00:34:24.575Z,4.03
2022-10-07T00:36:54.419Z,4.02
2022-10-07T00:39:24.380Z,3.94
2022-10-07T00:41:54.261Z,3.97
2022-10-07T00:44:29.576Z,3.93
2022-10-07T00:47:26.781Z,3.86
2022-10-07T00:50:12.933Z,3.86
2022-10-07T00:52:51.544Z,3.86
2022-10-07T00:55:24.475Z,3.84
2022-10-07T00:57:57.865Z,3.77
2022-10-07T01:00:27.797Z,3.76
2022-10-07T01:02:57.649Z,3.71
2022-10-07T01:05:27.777Z,3.61
2022-10-07T01:08:01.798Z,3.63
2022-10-07T01:10:34.620Z,3.60
2022-10-07T01:13:14.717Z,3.59
2022-10-07T01:15:48.599Z,3.55
2022-10-07T01:18:21.533Z,3.55
2022-10-07T01:21:06.160Z,3.51
2022-10-07T01:23:56.209Z,3.48
2022-10-07T01:26:46.115Z,3.48
2022-10-07T01:29:43.259Z,3.43
2022-10-07T01:32:17.419Z,3.41
2022-10-07T01:34:50.220Z,3.40
2022-10-07T01:37:22.897Z,3.40
2022-10-07T01:39:55.857Z,3.40
2022-10-07T01:42:27.149Z,3.37
2022-10-07T01:44:59.643Z,3.38
2022-10-07T01:47:30.533Z,3.37
2022-10-07T01:50:00.564Z,3.35
2022-10-07T01:52:48.400Z,3.35
2022-10-07T01:55:37.507Z,3.33
2022-10-07T01:58:13.860Z,3.31
2022-10-07T02:00:49.503Z,3.29
2022-10-07T02:03:37.536Z,3.28
2022-10-07T02:06:13.585Z,3.24
2022-10-07T02:08:53.379Z,3.19
2022-10-07T02:11:27.310Z,3.21
2022-10-07T02:14:02.251Z,3.17
2022-10-07T02:16:46.619Z,3.03
2022-10-07T02:19:23.083Z,3.03
2022-10-07T02:21:57.132Z,3.05
2022-10-07T02:24:30.392Z,3.03
2022-10-07T02:27:03.824Z,2.98
2022-10-07T02:29:36.699Z,3.04
2022-10-07T02:32:10.246Z,3.01
2022-10-07T02:34:43.553Z,3.00
2022-10-07T02:37:19.250Z,2.90
2022-10-07T02:39:49.813Z,2.84
2022-10-07T02:42:34.561Z,2.90
2022-10-07T02:45:16.621Z,2.65
2022-10-07T02:47:52.663Z,2.78
2022-10-07T02:50:25.616Z,2.77
2022-10-07T02:52:58.488Z,2.73
2022-10-07T02:55:30.785Z,2.73
2022-10-07T02:58:03.625Z,2.70
2022-10-07T03:00:36.617Z,2.71
2022-10-07T03:03:06.829Z,2.71
2022-10-07T03:05:41.952Z,2.69
2022-10-07T03:08:13.509Z,2.69
2022-10-07T03:10:44.070Z,2.67
2022-10-07T03:13:15.560Z,2.65
2022-10-07T03:15:47.043Z,2.67
2022-10-07T03:18:28.493Z,2.62
2022-10-07T03:21:01.312Z,2.62
2022-10-07T03:23:31.383Z,2.57
2022-10-07T03:26:01.697Z,2.61
2022-10-07T03:28:35.582Z,2.61
2022-10-07T03:31:09.713Z,2.57
2022-10-07T03:33:41.248Z,2.58
2022-10-07T03:36:11.355Z,2.56
2022-10-07T03:38:42.410Z,2.51
2022-10-07T03:41:12.747Z,2.49
2022-10-07T03:43:42.589Z,2.45
2022-10-07T03:46:12.340Z,2.49
2022-10-07T03:48:42.362Z,2.51
2022-10-07T03:51:12.591Z,2.38
2022-10-07T03:53:42.925Z,2.38
2022-10-07T03:56:13.276Z,2.27
2022-10-07T03:58:44.140Z,2.27
2022-10-07T04:01:17.996Z,2.16
2022-10-07T04:03:49.567Z,2.16
2022-10-07T04:06:20.115Z,2.17
2022-10-07T04:08:56.462Z,2.17
2022-10-07T04:11:26.673Z,2.19
2022-10-07T04:13:58.961Z,2.17
2022-10-07T04:16:29.272Z,2.18
2022-10-07T04:18:59.320Z,2.17
2022-10-07T04:21:29.740Z,2.05
2022-10-07T04:23:59.522Z,2.05
2022-10-07T04:26:29.570Z,2.16
2022-10-07T04:29:00.185Z,2.14
2022-10-07T04:31:30.654Z,2.11
2022-10-07T04:34:02.512Z,2.10
2022-10-07T04:36:33.709Z,2.10
2022-10-07T04:39:04.939Z,2.08
2022-10-07T04:41:36.622Z,2.06
2022-10-07T04:44:08.215Z,2.00
2022-10-07T04:46:41.013Z,2.00
2022-10-07T04:49:12.555Z,2.01
2022-10-07T04:51:42.417Z,1.99
2022-10-07T04:54:12.440Z,2.01
2022-10-07T04:56:50.460Z,1.98
2022-10-07T04:59:23.966Z,1.97
2022-10-07T05:01:53.486Z,1.96
2022-10-07T05:04:24.025Z,1.96
2022-10-07T05:06:54.530Z,2.03
2022-10-07T05:09:24.269Z,1.92
2022-10-07T05:11:56.820Z,1.90
2022-10-07T05:14:26.671Z,1.91
2022-10-07T05:16:57.522Z,1.90
2022-10-07T05:19:29.013Z,1.86
2022-10-07T05:21:59.437Z,1.86
2022-10-07T05:24:29.957Z,1.78
2022-10-07T05:26:59.738Z,1.82
2022-10-07T05:29:29.653Z,1.88
2022-10-07T05:32:04.836Z,1.88
2022-10-07T05:34:31.352Z,1.90
2022-10-07T05:37:01.496Z,1.96
2022-10-07T05:39:31.348Z,2.01
2022-10-07T05:42:02.900Z,2.12
2022-10-07T05:44:34.437Z,2.21
2022-10-07T05:47:06.757Z,2.31
2022-10-07T05:49:36.785Z,2.42
2022-10-07T05:52:07.724Z,2.56
2022-10-07T05:54:37.673Z,2.70
2022-10-07T05:57:07.351Z,2.70
2022-10-07T05:59:37.200Z,2.81
2022-10-07T06:02:07.610Z,2.86
2022-10-07T06:04:38.410Z,3.01
2022-10-07T06:07:08.383Z,3.07
2022-10-07T06:09:56.255Z,3.17
2022-10-07T06:12:43.821Z,3.27
2022-10-07T06:15:15.055Z,3.40
2022-10-07T06:17:47.369Z,3.58
2022-10-07T06:20:19.089Z,3.88
2022-10-07T06:22:50.066Z,3.88
2022-10-07T06:25:20.944Z,4.01
2022-10-07T06:27:54.158Z,4.13
2022-10-07T06:30:22.581Z,4.29
2022-10-07T06:32:52.591Z,4.40
2022-10-07T06:35:23.567Z,4.56
2022-10-07T06:37:54.330Z,4.78
2022-10-07T06:40:24.485Z,4.80
2022-10-07T06:42:54.841Z,4.92
2022-10-07T06:45:33.764Z,5.15
2022-10-07T06:48:03.942Z,5.31
2022-10-07T06:50:33.728Z,5.39
2022-10-07T06:53:03.778Z,5.52
2022-10-07T06:55:34.308Z,5.71
2022-10-07T06:58:09.092Z,5.83
2022-10-07T07:00:35.456Z,6.06
2022-10-07T07:03:06.676Z,6.31
2022-10-07T07:05:44.554Z,6.59
2022-10-07T07:08:13.658Z,6.70
2022-10-07T07:10:45.141Z,6.99
2022-10-07T07:13:15.950Z,7.22
2022-10-07T07:15:57.669Z,7.47
2022-10-07T07:18:27.870Z,8.07
2022-10-07T07:20:59.116Z,8.07
2022-10-07T07:23:28.985Z,8.29
2022-10-07T07:26:00.554Z,8.48
2022-10-07T07:28:31.353Z,8.74
2022-10-07T07:31:01.589Z,9.07
2022-10-07T07:33:31.410Z,9.29
2022-10-07T07:36:01.205Z,9.23
2022-10-07T07:38:31.336Z,9.44
2022-10-07T07:41:06.463Z,9.65
2022-10-07T07:43:36.392Z,10.05
2022-10-07T07:46:07.065Z,10.22
2022-10-07T07:48:38.106Z,10.78
2022-10-07T07:51:08.474Z,11.04
2022-10-07T07:53:39.341Z,11.21
2022-10-07T07:56:10.341Z,11.58
2022-10-07T07:58:40.451Z,12.13
2022-10-07T08:01:13.604Z,12.30
2022-10-07T08:03:46.381Z,12.89
2022-10-07T08:06:18.961Z,13.23
2022-10-07T08:08:51.325Z,13.47
2022-10-07T08:11:22.211Z,13.91
2022-10-07T08:13:52.268Z,14.29
2022-10-07T08:16:24.957Z,14.61
2022-10-07T08:18:57.026Z,15.56
2022-10-07T08:21:30.919Z,15.56
2022-10-07T08:24:02.677Z,15.03
2022-10-07T08:26:37.295Z,15.35
2022-10-07T08:29:08.710Z,15.42
2022-10-07T08:31:38.594Z,15.45
2022-10-07T08:34:12.467Z,15.64
2022-10-07T08:36:44.366Z,15.47
2022-10-07T08:39:15.203Z,15.75
2022-10-07T08:41:48.145Z,15.86
2022-10-07T08:44:26.458Z,16.23
2022-10-07T08:47:08.315Z,16.57
2022-10-07T08:49:56.203Z,16.65
2022-10-07T08:52:38.784Z,16.43
2022-10-07T08:55:26.519Z,16.45
2022-10-07T08:58:03.619Z,16.01
2022-10-07T09:00:54.787Z,15.58
2022-10-07T09:03:41.704Z,15.63
2022-10-07T09:06:14.433Z,15.54
2022-10-07T09:08:47.578Z,15.28
2022-10-07T09:11:22.101Z,15.20
2022-10-07T09:14:04.419Z,15.12
2022-10-07T09:16:37.417Z,15.03
2022-10-07T09:19:09.137Z,15.31
2022-10-07T09:21:42.473Z,15.82
2022-10-07T09:24:24.562Z,15.98
2022-10-07T09:26:57.963Z,16.14
2022-10-07T09:29:30.778Z,15.55
2022-10-07T09:32:00.626Z,15.61
2022-10-07T09:34:32.263Z,15.70
2022-10-07T09:37:23.246Z,15.63
2022-10-07T09:39:54.895Z,15.76
2022-10-07T09:42:36.401Z,15.86
2022-10-07T09:45:10.302Z,16.25
2022-10-07T09:47:42.091Z,16.79
2022-10-07T09:50:34.300Z,16.31
2022-10-07T09:53:06.654Z,16.31
2022-10-07T09:55:41.803Z,16.33
2022-10-07T09:58:31.929Z,16.86
2022-10-07T10:01:04.583Z,16.90
2022-10-07T10:03:37.425Z,17.40
2022-10-07T10:06:09.388Z,17.43
2022-10-07T10:08:42.488Z,17.25
2022-10-07T10:11:25.828Z,17.20
2022-10-07T10:13:55.934Z,17.76
2022-10-07T10:16:39.697Z,17.52
2022-10-07T10:19:31.538Z,17.17
2022-10-07T10:22:00.738Z,17.17
2022-10-07T10:24:50.580Z,17.11
2022-10-07T10:27:29.511Z,16.81
2022-10-07T10:30:07.211Z,16.78
2022-10-07T10:32:46.333Z,16.92
2022-10-07T10:35:22.399Z,16.80
2022-10-07T10:38:01.236Z,16.61
2022-10-07T10:40:43.012Z,16.48
2022-10-07T10:43:27.814Z,16.47
2022-10-07T10:46:16.065Z,16.30
2022-10-07T10:48:55.135Z,16.30
2022-10-07T10:51:29.603Z,16.73
2022-10-07T10:54:28.501Z,16.89
2022-10-07T10:57:14.925Z,16.84
2022-10-07T11:00:12.804Z,16.85
2022-10-07T11:03:04.496Z,17.33
2022-10-07T11:05:40.285Z,17.57
2022-10-07T11:08:18.692Z,17.81
2022-10-07T11:11:21.527Z,18.19
2022-10-07T11:14:03.587Z,18.15
2022-10-07T11:16:47.787Z,18.12
2022-10-07T11:19:29.014Z,18.32
2022-10-07T11:22:01.264Z,18.24
2022-10-07T11:24:53.684Z,18.54
2022-10-07T11:27:29.282Z,18.57
2022-10-07T11:30:11.223Z,18.15
2022-10-07T11:32:44.770Z,18.84
2022-10-07T11:35:35.637Z,18.31
2022-10-07T11:38:21.242Z,18.71
2022-10-07T11:41:05.845Z,19.06
2022-10-07T11:43:45.277Z,19.25
2022-10-07T11:46:21.007Z,19.32
2022-10-07T11:49:11.685Z,19.32
2022-10-07T11:51:59.120Z,19.42
2022-10-07T11:54:31.994Z,19.32
2022-10-07T11:57:02.584Z,19.84
2022-10-07T11:59:48.181Z,19.90
2022-10-07T12:02:32.898Z,19.92
2022-10-07T12:05:03.523Z,19.60
2022-10-07T12:07:42.136Z,19.15
2022-10-07T12:10:22.097Z,19.21
2022-10-07T12:12:54.957Z,19.61
2022-10-07T12:15:33.861Z,19.73
2022-10-07T12:18:10.590Z,19.98
2022-10-07T12:20:53.980Z,19.76
2022-10-07T12:23:26.660Z,19.74
2022-10-07T12:26:01.307Z,19.79
2022-10-07T12:28:45.446Z,19.70
2022-10-07T12:31:22.752Z,19.47
2022-10-07T12:34:08.592Z,19.47
2022-10-07T12:36:40.958Z,19.66
2022-10-07T12:39:13.851Z,19.38
2022-10-07T12:41:47.749Z,19.60
2022-10-07T12:44:34.308Z,19.43
2022-10-07T12:47:18.200Z,19.66
2022-10-07T12:49:54.537Z,19.66
2022-10-07T12:52:27.431Z,19.69
2022-10-07T12:55:03.406Z,19.25
2022-10-07T12:57:42.515Z,19.62
2022-10-07T13:00:15.511Z,19.53
2022-10-07T13:03:22.118Z,19.44
2022-10-07T13:06:11.424Z,19.27
2022-10-07T13:09:02.839Z,19.68
2022-10-07T13:11:47.822Z,19.50
2022-10-07T13:14:28.114Z,19.68
2022-10-07T13:17:28.198Z,19.80
2022-10-07T13:20:04.090Z,19.79
2022-10-07T13:22:34.311Z,19.77
2022-10-07T13:25:07.330Z,19.76
2022-10-07T13:27:41.012Z,19.89
2022-10-07T13:30:13.881Z,19.85
2022-10-07T13:32:44.055Z,19.68
2022-10-07T13:35:27.569Z,19.75
2022-10-07T13:37:57.498Z,19.51
2022-10-07T13:40:31.744Z,19.37
2022-10-07T13:43:03.892Z,19.45
2022-10-07T13:45:36.756Z,19.51
2022-10-07T13:48:07.040Z,19.54
2022-10-07T13:50:38.028Z,19.39
2022-10-07T13:53:09.335Z,19.55
2022-10-07T13:55:39.210Z,19.51
2022-10-07T13:58:10.648Z,19.43
2022-10-07T14:00:43.796Z,19.42
2022-10-07T14:03:19.213Z,19.37
2022-10-07T14:05:51.940Z,19.30
2022-10-07T14:08:30.457Z,19.23
2022-10-07T14:11:09.145Z,19.17
2022-10-07T14:13:39.117Z,19.25
2022-10-07T14:16:12.069Z,19.33
2022-10-07T14:18:44.202Z,19.05
2022-10-07T14:21:15.583Z,18.98
2022-10-07T14:23:49.787Z,19.01
2022-10-07T14:26:19.382Z,18.95
2022-10-07T14:28:49.696Z,18.87
2022-10-07T14:31:39.583Z,18.87
2022-10-07T14:34:33.193Z,18.77
2022-10-07T14:37:11.532Z,18.58
2022-10-07T14:39:49.154Z,18.58
2022-10-07T14:42:27.891Z,18.49
2022-10-07T14:44:58.934Z,18.54
2022-10-07T14:47:31.457Z,18.44
2022-10-07T14:50:02.456Z,18.41
2022-10-07T14:52:51.936Z,18.42
2022-10-07T14:55:25.835Z,18.50
2022-10-07T14:57:56.698Z,18.39
2022-10-07T15:00:38.715Z,18.32
2022-10-07T15:03:06.133Z,18.49
2022-10-07T15:05:35.909Z,18.26
2022-10-07T15:08:06.936Z,18.18
2022-10-07T15:10:36.755Z,18.11
2022-10-07T15:13:12.376Z,17.98
2022-10-07T15:15:44.517Z,17.94
2022-10-07T15:18:14.462Z,17.95
2022-10-07T15:20:44.115Z,18.14
2022-10-07T15:23:15.394Z,17.75
2022-10-07T15:25:45.649Z,17.65
2022-10-07T15:28:17.184Z,17.61
2022-10-07T15:30:47.103Z,17.51
2022-10-07T15:33:16.844Z,17.51
2022-10-07T15:35:46.712Z,17.49
2022-10-07T15:38:16.228Z,17.36
2022-10-07T15:40:57.407Z,17.20
2022-10-07T15:43:27.328Z,17.49
2022-10-07T15:45:58.947Z,17.10
2022-10-07T15:48:29.685Z,17.01
2022-10-07T15:50:59.255Z,17.05
2022-10-07T15:53:29.045Z,16.77
2022-10-07T15:55:59.625Z,16.65
2022-10-07T15:58:32.355Z,16.60
2022-10-07T16:01:04.809Z,16.53
2022-10-07T16:03:40.545Z,16.21
2022-10-07T16:06:13.273Z,16.27
2022-10-07T16:08:42.994Z,15.96
2022-10-07T16:11:14.115Z,15.70
2022-10-07T16:13:47.032Z,15.50
2022-10-07T16:16:20.333Z,15.90
2022-10-07T16:18:52.064Z,15.59
2022-10-07T16:21:24.850Z,15.45
2022-10-07T16:23:57.918Z,15.15
2022-10-07T16:26:30.288Z,15.22
2022-10-07T16:29:19.589Z,15.22
2022-10-07T16:31:54.558Z,14.99
2022-10-07T16:34:21.734Z,14.67
2022-10-07T16:36:52.198Z,14.65
2022-10-07T16:39:22.187Z,14.70
2022-10-07T16:41:52.909Z,14.62
2022-10-07T16:44:23.487Z,14.41
2022-10-07T16:46:55.113Z,14.10
2022-10-07T16:49:26.261Z,14.10
2022-10-07T16:51:56.456Z,13.98
2022-10-07T16:54:28.635Z,13.92
2022-10-07T16:56:58.551Z,13.85
2022-10-07T16:59:28.449Z,13.76
2022-10-07T17:02:00.266Z,13.66
2022-10-07T17:04:30.241Z,13.64
2022-10-07T17:07:00.043Z,13.60
2022-10-07T17:09:29.833Z,13.49
2022-10-07T17:11:59.647Z,13.46
2022-10-07T17:14:31.676Z,13.43
2022-10-07T17:17:01.737Z,13.52
2022-10-07T17:19:31.858Z,13.43
2022-10-07T17:22:01.411Z,13.50
2022-10-07T17:24:31.507Z,13.28
2022-10-07T17:27:01.289Z,13.19
2022-10-07T17:29:32.725Z,13.10
2022-10-07T17:32:01.765Z,13.14
2022-10-07T17:34:32.523Z,13.14
2022-10-07T17:37:02.300Z,13.31
2022-10-07T17:39:32.159Z,13.19
2022-10-07T17:42:01.911Z,13.24
2022-10-07T17:44:34.238Z,13.20
2022-10-07T17:47:04.218Z,13.22
2022-10-07T17:49:34.032Z,13.09
2022-10-07T17:52:03.846Z,13.03
2022-10-07T17:54:33.622Z,13.02
2022-10-07T17:57:04.348Z,12.91
2022-10-07T17:59:34.770Z,12.91
2022-10-07T18:02:05.358Z,12.93
2022-10-07T18:04:35.256Z,12.97
2022-10-07T18:07:05.081Z,12.87
2022-10-07T18:09:34.869Z,12.89
2022-10-07T18:12:22.708Z,12.81
2022-10-07T18:15:10.185Z,12.81
2022-10-07T18:17:40.265Z,12.78
2022-10-07T18:20:14.981Z,13.05
2022-10-07T18:22:44.167Z,12.99
2022-10-07T18:25:13.742Z,12.98
2022-10-07T18:27:43.948Z,12.89
2022-10-07T18:30:13.883Z,13.00
2022-10-07T18:32:43.761Z,13.03
2022-10-07T18:35:13.493Z,13.00
2022-10-07T18:37:43.742Z,13.03
2022-10-07T18:40:13.567Z,13.03
2022-10-07T18:42:43.422Z,13.07
2022-10-07T18:45:13.237Z,13.20
2022-10-07T18:47:43.230Z,13.06
2022-10-07T18:50:12.902Z,13.27
2022-10-07T18:52:42.679Z,13.34
2022-10-07T18:55:12.447Z,13.37
2022-10-07T18:57:42.343Z,13.46
2022-10-07T19:00:12.584Z,13.52
2022-10-07T19:02:43.706Z,13.55
2022-10-07T19:05:13.680Z,13.63
2022-10-07T19:07:43.796Z,13.58
2022-10-07T19:10:13.727Z,13.61
2022-10-07T19:13:00.888Z,13.60
2022-10-07T19:15:30.969Z,13.71
2022-10-07T19:18:01.792Z,13.54
2022-10-07T19:20:32.549Z,13.46
2022-10-07T19:23:02.052Z,13.41
2022-10-07T19:25:47.109Z,13.33
2022-10-07T19:28:17.004Z,13.33
2022-10-07T19:30:46.812Z,13.28
2022-10-07T19:33:16.925Z,13.44
2022-10-07T19:35:47.262Z,13.40
2022-10-07T19:38:17.017Z,13.38
2022-10-07T19:40:46.796Z,13.39
2022-10-07T19:43:16.754Z,13.23
2022-10-07T19:45:47.179Z,13.18
2022-10-07T19:48:16.699Z,13.20
2022-10-07T19:50:46.573Z,13.09
2022-10-07T19:53:16.785Z,13.03
2022-10-07T19:55:46.862Z,12.93
2022-10-07T19:58:17.279Z,12.93
2022-10-07T20:00:47.495Z,13.00
2022-10-07T20:03:17.004Z,12.87
2022-10-07T20:05:46.866Z,12.80
2022-10-07T20:08:16.730Z,12.81
2022-10-07T20:10:46.585Z,12.83
2022-10-07T20:13:17.544Z,12.85
2022-10-07T20:15:47.342Z,12.88
2022-10-07T20:18:17.786Z,13.00
2022-10-07T20:20:47.683Z,13.02
2022-10-07T20:23:17.464Z,13.06
2022-10-07T20:25:47.927Z,13.05
2022-10-07T20:28:17.468Z,13.10
2022-10-07T20:30:47.316Z,13.14
2022-10-07T20:33:17.112Z,13.24
2022-10-07T20:35:47.486Z,13.24
2022-10-07T20:38:17.298Z,13.28
2022-10-07T20:41:06.269Z,13.29
2022-10-07T20:43:36.045Z,13.26
2022-10-07T20:46:06.761Z,13.29
2022-10-07T20:48:36.570Z,13.34
2022-10-07T20:51:10.302Z,13.38
2022-10-07T20:53:39.843Z,13.46
2022-10-07T20:56:09.659Z,13.70
2022-10-07T20:58:39.807Z,13.70
2022-10-07T21:01:10.037Z,13.75
2022-10-07T21:03:39.818Z,13.72
2022-10-07T21:06:09.685Z,13.96
2022-10-07T21:08:39.484Z,14.30
2022-10-07T21:11:09.044Z,14.58
2022-10-07T21:13:38.971Z,14.58
2022-10-07T21:16:08.656Z,14.66
2022-10-07T21:18:38.536Z,14.65
2022-10-07T21:21:09.665Z,14.53
2022-10-07T21:23:40.029Z,14.49
2022-10-07T21:26:09.807Z,14.28
2022-10-07T21:28:40.217Z,14.38
2022-10-07T21:31:14.550Z,14.50
2022-10-07T21:33:47.020Z,14.65
2022-10-07T21:36:19.269Z,14.49
2022-10-07T21:38:52.106Z,14.45
2022-10-07T21:41:29.725Z,14.59
2022-10-07T21:44:00.869Z,14.63
2022-10-07T21:46:32.361Z,14.63
2022-10-07T21:49:02.160Z,14.66
2022-10-07T21:51:32.306Z,14.36
2022-10-07T21:54:03.155Z,14.20
2022-10-07T21:56:34.725Z,14.04
2022-10-07T21:59:04.309Z,13.92
2022-10-07T22:01:35.502Z,13.91
2022-10-07T22:04:06.061Z,13.91
2022-10-07T22:06:53.473Z,13.91
2022-10-07T22:09:22.971Z,13.88
2022-10-07T22:11:52.838Z,13.86
2022-10-07T22:14:22.743Z,14.35
2022-10-07T22:16:52.614Z,14.21
2022-10-07T22:19:22.994Z,14.07
2022-10-07T22:21:52.843Z,13.88
2022-10-07T22:24:24.356Z,13.79
2022-10-07T22:26:53.903Z,13.61
2022-10-07T22:29:25.244Z,13.52
2022-10-07T22:31:55.491Z,13.29
2022-10-07T22:34:44.351Z,13.29
2022-10-07T22:37:13.860Z,13.15
2022-10-07T22:39:43.744Z,13.17
2022-10-07T22:42:13.257Z,13.00
2022-10-07T22:44:43.343Z,12.90
2022-10-07T22:47:12.989Z,12.75
2022-10-07T22:49:42.853Z,12.49
2022-10-07T22:52:12.354Z,12.45
2022-10-07T22:54:42.151Z,12.45
2022-10-07T22:57:11.720Z,12.31
2022-10-07T22:59:41.514Z,12.25
2022-10-07T23:02:11.228Z,12.21
2022-10-07T23:04:40.992Z,12.21
2022-10-07T23:07:10.919Z,12.15
2022-10-07T23:09:40.701Z,12.12
2022-10-07T23:12:10.688Z,12.02
2022-10-07T23:14:41.186Z,12.24
2022-10-07T23:17:10.756Z,12.10
2022-10-07T23:19:40.611Z,11.96
2022-10-07T23:22:10.570Z,11.88
2022-10-07T23:24:40.844Z,11.70
2022-10-07T23:27:10.723Z,11.64
2022-10-07T23:29:40.603Z,11.56
2022-10-07T23:32:10.332Z,11.56
2022-10-07T23:34:40.592Z,11.53
2022-10-07T23:37:10.447Z,11.46
2022-10-07T23:39:40.239Z,11.36
2022-10-07T23:42:09.752Z,11.37
2022-10-07T23:44:39.558Z,11.31
2022-10-07T23:47:09.374Z,11.28
2022-10-07T23:49:39.166Z,11.23
2022-10-07T23:52:09.651Z,11.18
2022-10-07T23:54:40.093Z,11.18
2022-10-07T23:57:09.894Z,11.14
2022-10-07T23:59:39.695Z,11.10
